sensor_id;sensor_type;location;lat;lon;timestamp;pressure;altitude;pressure_sealevel;temperature;humidity
21623;BME280;10973;46.706;12.340;2022-08-03T00:00:28;87924.63;;;17.33;55.41
21623;BME280;10973;46.706;12.340;2022-08-03T00:02:56;87926.16;;;17.30;55.67
21623;BME280;10973;46.706;12.340;2022-08-03T00:05:38;87922.38;;;17.28;55.50
21623;BME280;10973;46.706;12.340;2022-08-03T00:08:05;87923.16;;;17.25;55.36
21623;BME280;10973;46.706;12.340;2022-08-03T00:10:32;87925.47;;;17.23;55.35
21623;BME280;10973;46.706;12.340;2022-08-03T00:13:00;87924.00;;;17.18;55.47
21623;BME280;10973;46.706;12.340;2022-08-03T00:15:27;87923.63;;;17.16;55.38
21623;BME280;10973;46.706;12.340;2022-08-03T00:17:54;87921.03;;;17.13;55.66
21623;BME280;10973;46.706;12.340;2022-08-03T00:20:22;87919.53;;;17.08;55.83
21623;BME280;10973;46.706;12.340;2022-08-03T00:22:50;87918.41;;;17.05;55.84
21623;BME280;10973;46.706;12.340;2022-08-03T00:25:18;87921.50;;;17.00;55.88
21623;BME280;10973;46.706;12.340;2022-08-03T00:27:46;87916.19;;;16.97;56.06
21623;BME280;10973;46.706;12.340;2022-08-03T00:30:16;87911.28;;;16.95;55.98
21623;BME280;10973;46.706;12.340;2022-08-03T00:32:45;87911.28;;;16.95;55.87
21623;BME280;10973;46.706;12.340;2022-08-03T00:35:13;87917.75;;;16.94;55.65
21623;BME280;10973;46.706;12.340;2022-08-03T00:38:00;87906.78;;;16.89;55.76
21623;BME280;10973;46.706;12.340;2022-08-03T00:40:28;87911.38;;;16.85;55.81
21623;BME280;10973;46.706;12.340;2022-08-03T00:43:05;87910.56;;;16.88;55.85
21623;BME280;10973;46.706;12.340;2022-08-03T00:45:36;87915.94;;;16.84;56.04
21623;BME280;10973;46.706;12.340;2022-08-03T00:48:08;87912.56;;;16.80;56.01
21623;BME280;10973;46.706;12.340;2022-08-03T00:50:57;87907.28;;;16.73;56.04
21623;BME280;10973;46.706;12.340;2022-08-03T00:53:25;87904.25;;;16.71;56.07
21623;BME280;10973;46.706;12.340;2022-08-03T00:55:53;87905.41;;;16.70;55.75
21623;BME280;10973;46.706;12.340;2022-08-03T00:58:22;87903.53;;;16.67;55.89
21623;BME280;10973;46.706;12.340;2022-08-03T01:00:50;87899.72;;;16.68;56.12
21623;BME280;10973;46.706;12.340;2022-08-03T01:03:17;87903.16;;;16.65;56.25
21623;BME280;10973;46.706;12.340;2022-08-03T01:11:50;87899.06;;;16.50;56.13
21623;BME280;10973;46.706;12.340;2022-08-03T01:14:43;87895.66;;;16.50;56.19
21623;BME280;10973;46.706;12.340;2022-08-03T01:17:58;87899.06;;;16.50;56.35
21623;BME280;10973;46.706;12.340;2022-08-03T01:20:34;87891.88;;;16.47;56.30
21623;BME280;10973;46.706;12.340;2022-08-03T01:26:47;87897.63;;;16.42;56.65
21623;BME280;10973;46.706;12.340;2022-08-03T01:32:47;87885.13;;;16.35;56.71
21623;BME280;10973;46.706;12.340;2022-08-03T01:36:15;87892.72;;;16.37;56.68
21623;BME280;10973;46.706;12.340;2022-08-03T01:38:40;87877.94;;;16.32;56.59
21623;BME280;10973;46.706;12.340;2022-08-03T01:41:16;87885.91;;;16.32;56.44
21623;BME280;10973;46.706;12.340;2022-08-03T01:43:48;87885.56;;;16.30;56.59
21623;BME280;10973;46.706;12.340;2022-08-03T01:46:38;87875.69;;;16.27;56.78
21623;BME280;10973;46.706;12.340;2022-08-03T01:49:14;87883.31;;;16.25;56.70
21623;BME280;10973;46.706;12.340;2022-08-03T01:51:46;87879.13;;;16.24;56.50
21623;BME280;10973;46.706;12.340;2022-08-03T01:54:36;87871.19;;;16.17;56.51
21623;BME280;10973;46.706;12.340;2022-08-03T01:57:08;87873.88;;;16.14;56.38
21623;BME280;10973;46.706;12.340;2022-08-03T01:59:37;87876.53;;;16.14;56.61
21623;BME280;10973;46.706;12.340;2022-08-03T02:02:07;87873.88;;;16.14;56.69
21623;BME280;10973;46.706;12.340;2022-08-03T02:04:57;87870.50;;;16.10;56.63
21623;BME280;10973;46.706;12.340;2022-08-03T02:07:28;87868.22;;;16.08;56.68
21623;BME280;10973;46.706;12.340;2022-08-03T02:09:59;87878.47;;;16.06;56.58
21623;BME280;10973;46.706;12.340;2022-08-03T02:12:28;87881.53;;;16.05;56.72
21623;BME280;10973;46.706;12.340;2022-08-03T02:14:59;87874.69;;;16.04;56.51
21623;BME280;10973;46.706;12.340;2022-08-03T02:17:29;87873.97;;;16.00;56.76
21623;BME280;10973;46.706;12.340;2022-08-03T02:20:09;87876.25;;;15.98;56.71
21623;BME280;10973;46.706;12.340;2022-08-03T02:22:42;87877.78;;;15.95;56.79
21623;BME280;10973;46.706;12.340;2022-08-03T02:25:13;87875.91;;;15.96;57.08
21623;BME280;10973;46.706;12.340;2022-08-03T02:28:34;87874.00;;;15.93;56.81
21623;BME280;10973;46.706;12.340;2022-08-03T02:30:55;87872.16;;;15.90;57.22
21623;BME280;10973;46.706;12.340;2022-08-03T02:33:47;87876.34;;;15.84;57.01
21623;BME280;10973;46.706;12.340;2022-08-03T02:36:28;87871.78;;;15.84;57.03
21623;BME280;10973;46.706;12.340;2022-08-03T02:38:59;87877.50;;;15.83;56.88
21623;BME280;10973;46.706;12.340;2022-08-03T02:41:36;87876.75;;;15.79;57.01
21623;BME280;10973;46.706;12.340;2022-08-03T02:44:08;87872.22;;;15.76;57.22
21623;BME280;10973;46.706;12.340;2022-08-03T02:46:42;87881.72;;;15.73;57.23
21623;BME280;10973;46.706;12.340;2022-08-03T02:49:13;87879.47;;;15.72;57.14
21623;BME280;10973;46.706;12.340;2022-08-03T02:52:02;87873.38;;;15.71;57.44
21623;BME280;10973;46.706;12.340;2022-08-03T02:54:32;87879.09;;;15.69;57.38
21623;BME280;10973;46.706;12.340;2022-08-03T02:57:01;87869.22;;;15.66;57.35
21623;BME280;10973;46.706;12.340;2022-08-03T02:59:31;87871.53;;;15.64;56.92
21623;BME280;10973;46.706;12.340;2022-08-03T03:01:59;87874.19;;;15.64;57.11
21623;BME280;10973;46.706;12.340;2022-08-03T03:04:29;87875.31;;;15.63;57.23
21623;BME280;10973;46.706;12.340;2022-08-03T03:07:00;87881.41;;;15.60;57.27
21623;BME280;10973;46.706;12.340;2022-08-03T03:09:32;87880.66;;;15.60;57.48
21623;BME280;10973;46.706;12.340;2022-08-03T03:12:10;87878.00;;;15.60;57.47
21623;BME280;10973;46.706;12.340;2022-08-03T03:14:39;87876.47;;;15.59;57.41
21623;BME280;10973;46.706;12.340;2022-08-03T03:17:10;87881.06;;;15.51;57.50
21623;BME280;10973;46.706;12.340;2022-08-03T03:19:39;87876.91;;;15.47;57.74
21623;BME280;10973;46.706;12.340;2022-08-03T03:22:08;87881.09;;;15.44;57.74
21623;BME280;10973;46.706;12.340;2022-08-03T03:24:38;87877.28;;;15.42;57.86
21623;BME280;10973;46.706;12.340;2022-08-03T03:27:07;87873.13;;;15.44;57.69
21623;BME280;10973;46.706;12.340;2022-08-03T03:29:36;87875.00;;;15.47;57.59
21623;BME280;10973;46.706;12.340;2022-08-03T03:32:05;87869.31;;;15.45;57.48
21623;BME280;10973;46.706;12.340;2022-08-03T03:34:36;87875.03;;;15.44;57.68
21623;BME280;10973;46.706;12.340;2022-08-03T03:37:03;87877.28;;;15.42;57.72
21623;BME280;10973;46.706;12.340;2022-08-03T03:39:31;87871.97;;;15.38;57.88
21623;BME280;10973;46.706;12.340;2022-08-03T03:42:00;87872.75;;;15.39;57.72
21623;BME280;10973;46.706;12.340;2022-08-03T03:44:28;87875.78;;;15.37;57.79
21623;BME280;10973;46.706;12.340;2022-08-03T03:46:59;87876.53;;;15.38;57.60
21623;BME280;10973;46.706;12.340;2022-08-03T03:50:01;87870.09;;;15.35;57.50
21623;BME280;10973;46.706;12.340;2022-08-03T03:52:31;87875.41;;;15.35;57.65
21623;BME280;10973;46.706;12.340;2022-08-03T03:54:58;87871.25;;;15.34;57.62
21623;BME280;10973;46.706;12.340;2022-08-03T03:57:31;87874.66;;;15.31;57.49
21623;BME280;10973;46.706;12.340;2022-08-03T04:00:00;87882.25;;;15.29;57.19
21623;BME280;10973;46.706;12.340;2022-08-03T04:02:27;87877.34;;;15.28;57.42
21623;BME280;10973;46.706;12.340;2022-08-03T04:04:54;87885.28;;;15.24;57.52
21623;BME280;10973;46.706;12.340;2022-08-03T04:07:29;87883.44;;;15.21;57.74
21623;BME280;10973;46.706;12.340;2022-08-03T04:10:03;87887.97;;;15.21;57.94
21623;BME280;10973;46.706;12.340;2022-08-03T04:12:44;87886.47;;;15.16;57.82
21623;BME280;10973;46.706;12.340;2022-08-03T04:15:20;87883.84;;;15.13;57.86
21623;BME280;10973;46.706;12.340;2022-08-03T04:17:52;87891.03;;;15.09;57.73
21623;BME280;10973;46.706;12.340;2022-08-03T04:20:23;87886.09;;;15.11;57.79
21623;BME280;10973;46.706;12.340;2022-08-03T04:22:55;87891.81;;;15.13;57.72
21623;BME280;10973;46.706;12.340;2022-08-03T04:25:29;87892.56;;;15.10;57.81
21623;BME280;10973;46.706;12.340;2022-08-03T04:28:02;87892.97;;;15.08;58.08
21623;BME280;10973;46.706;12.340;2022-08-03T04:30:52;87894.47;;;15.09;58.06
21623;BME280;10973;46.706;12.340;2022-08-03T04:33:21;87888.78;;;15.07;58.30
21623;BME280;10973;46.706;12.340;2022-08-03T04:35:51;87892.56;;;15.06;58.13
21623;BME280;10973;46.706;12.340;2022-08-03T04:38:38;87899.78;;;15.02;58.43
21623;BME280;10973;46.706;12.340;2022-08-03T04:41:07;87896.38;;;14.98;58.41
21623;BME280;10973;46.706;12.340;2022-08-03T04:43:37;87892.97;;;15.01;58.43
21623;BME280;10973;46.706;12.340;2022-08-03T04:46:07;87889.94;;;15.02;58.36
21623;BME280;10973;46.706;12.340;2022-08-03T04:48:34;87889.16;;;15.02;58.53
21623;BME280;10973;46.706;12.340;2022-08-03T04:51:02;87894.47;;;15.02;58.66
21623;BME280;10973;46.706;12.340;2022-08-03T04:53:30;87893.72;;;15.05;58.77
21623;BME280;10973;46.706;12.340;2022-08-03T04:56:04;87894.84;;;15.08;58.64
21623;BME280;10973;46.706;12.340;2022-08-03T04:58:32;87897.09;;;15.09;58.97
21623;BME280;10973;46.706;12.340;2022-08-03T05:00:59;87901.66;;;15.09;59.02
21623;BME280;10973;46.706;12.340;2022-08-03T05:03:27;87894.84;;;15.08;59.02
21623;BME280;10973;46.706;12.340;2022-08-03T05:05:54;87894.84;;;15.08;58.72
21623;BME280;10973;46.706;12.340;2022-08-03T05:08:37;87901.28;;;15.07;58.97
21623;BME280;10973;46.706;12.340;2022-08-03T05:11:25;87900.16;;;15.08;59.04
21623;BME280;10973;46.706;12.340;2022-08-03T05:13:52;87904.72;;;15.04;59.11
21623;BME280;10973;46.706;12.340;2022-08-03T05:16:20;87906.22;;;15.08;58.77
21623;BME280;10973;46.706;12.340;2022-08-03T05:18:47;87907.34;;;15.11;59.19
21623;BME280;10973;46.706;12.340;2022-08-03T05:21:15;87911.53;;;15.12;59.25
21623;BME280;10973;46.706;12.340;2022-08-03T05:23:43;87905.44;;;15.11;58.99
21623;BME280;10973;46.706;12.340;2022-08-03T05:26:11;87908.47;;;15.13;58.83
21623;BME280;10973;46.706;12.340;2022-08-03T05:28:38;87905.81;;;15.13;58.99
21623;BME280;10973;46.706;12.340;2022-08-03T05:31:18;87905.09;;;15.13;59.25
21623;BME280;10973;46.706;12.340;2022-08-03T05:33:45;87908.47;;;15.17;59.37
21623;BME280;10973;46.706;12.340;2022-08-03T05:36:12;87908.47;;;15.24;59.30
21623;BME280;10973;46.706;12.340;2022-08-03T05:38:39;87909.59;;;15.26;59.11
21623;BME280;10973;46.706;12.340;2022-08-03T05:41:07;87905.78;;;15.31;58.95
21623;BME280;10973;46.706;12.340;2022-08-03T05:43:52;87905.00;;;15.34;58.71
21623;BME280;10973;46.706;12.340;2022-08-03T05:46:21;87902.72;;;15.36;58.77
21623;BME280;10973;46.706;12.340;2022-08-03T05:48:49;87906.50;;;15.42;58.83
21623;BME280;10973;46.706;12.340;2022-08-03T05:51:16;87906.88;;;15.47;59.16
21623;BME280;10973;46.706;12.340;2022-08-03T05:53:44;87896.63;;;15.53;58.99
21623;BME280;10973;46.706;12.340;2022-08-03T05:56:12;87893.53;;;15.61;58.76
21623;BME280;10973;46.706;12.340;2022-08-03T05:58:44;87893.88;;;15.70;59.25
21623;BME280;10973;46.706;12.340;2022-08-03T06:01:12;87892.31;;;15.80;59.46
21623;BME280;10973;46.706;12.340;2022-08-03T06:03:40;87893.41;;;15.90;59.78
21623;BME280;10973;46.706;12.340;2022-08-03T06:06:07;87892.56;;;16.00;59.60
21623;BME280;10973;46.706;12.340;2022-08-03T06:08:35;87888.72;;;16.11;59.68
21623;BME280;10973;46.706;12.340;2022-08-03T06:11:03;87890.16;;;16.23;59.50
21623;BME280;10973;46.706;12.340;2022-08-03T06:13:30;87887.44;;;16.30;59.84
21623;BME280;10973;46.706;12.340;2022-08-03T06:15:58;87890.41;;;16.39;59.74
21623;BME280;10973;46.706;12.340;2022-08-03T06:18:25;87891.09;;;16.50;59.89
21623;BME280;10973;46.706;12.340;2022-08-03T06:20:53;87882.69;;;16.59;59.96
21623;BME280;10973;46.706;12.340;2022-08-03T06:23:21;87884.91;;;16.67;60.04
21623;BME280;10973;46.706;12.340;2022-08-03T06:26:08;87884.06;;;16.77;59.74
21623;BME280;10973;46.706;12.340;2022-08-03T06:28:39;87882.03;;;16.88;59.80
21623;BME280;10973;46.706;12.340;2022-08-03T06:31:21;87885.75;;;16.98;59.86
21623;BME280;10973;46.706;12.340;2022-08-03T06:33:49;87889.47;;;17.07;59.61
21623;BME280;10973;46.706;12.340;2022-08-03T06:36:36;87881.38;;;17.18;59.31
21623;BME280;10973;46.706;12.340;2022-08-03T06:39:04;87891.19;;;17.28;59.08
21623;BME280;10973;46.706;12.340;2022-08-03T06:41:34;87879.28;;;17.36;58.73
21623;BME280;10973;46.706;12.340;2022-08-03T06:44:11;87872.31;;;17.46;58.48
21623;BME280;10973;46.706;12.340;2022-08-03T06:46:38;87875.66;;;17.57;58.32
21623;BME280;10973;46.706;12.340;2022-08-03T06:49:06;87870.59;;;17.66;58.17
21623;BME280;10973;46.706;12.340;2022-08-03T06:51:34;87871.63;;;17.75;58.16
21623;BME280;10973;46.706;12.340;2022-08-03T06:54:21;87876.81;;;17.86;57.98
21623;BME280;10973;46.706;12.340;2022-08-03T06:56:49;87875.94;;;17.96;58.12
21623;BME280;10973;46.706;12.340;2022-08-03T06:59:16;87871.22;;;18.04;58.07
21623;BME280;10973;46.706;12.340;2022-08-03T07:02:04;87876.44;;;18.14;57.76
21623;BME280;10973;46.706;12.340;2022-08-03T07:04:31;87867.16;;;18.22;57.89
21623;BME280;10973;46.706;12.340;2022-08-03T07:06:58;87867.84;;;18.30;57.75
21623;BME280;10973;46.706;12.340;2022-08-03T07:09:26;87862.75;;;18.39;57.65
21623;BME280;10973;46.706;12.340;2022-08-03T07:11:53;87864.91;;;18.47;57.75
21623;BME280;10973;46.706;12.340;2022-08-03T07:14:21;87873.94;;;18.57;57.26
21623;BME280;10973;46.706;12.340;2022-08-03T07:16:48;87866.59;;;18.65;57.17
21623;BME280;10973;46.706;12.340;2022-08-03T07:19:16;87868.03;;;18.69;56.46
21623;BME280;10973;46.706;12.340;2022-08-03T07:21:43;87862.50;;;18.80;56.29
21623;BME280;10973;46.706;12.340;2022-08-03T07:24:10;87860.88;;;18.86;56.18
21623;BME280;10973;46.706;12.340;2022-08-03T07:26:37;87861.09;;;18.95;56.11
21623;BME280;10973;46.706;12.340;2022-08-03T07:29:05;87856.06;;;19.00;56.26
21623;BME280;10973;46.706;12.340;2022-08-03T07:31:41;87864.72;;;19.08;56.28
21623;BME280;10973;46.706;12.340;2022-08-03T07:34:08;87857.72;;;19.14;55.81
21623;BME280;10973;46.706;12.340;2022-08-03T07:36:36;87850.34;;;19.21;56.00
21623;BME280;10973;46.706;12.340;2022-08-03T07:39:04;87854.38;;;19.30;55.84
21623;BME280;10973;46.706;12.340;2022-08-03T07:41:44;87853.94;;;19.35;55.77
21623;BME280;10973;46.706;12.340;2022-08-03T07:44:12;87853.06;;;19.41;55.39
21623;BME280;10973;46.706;12.340;2022-08-03T07:46:39;87855.59;;;19.48;55.27
21623;BME280;10973;46.706;12.340;2022-08-03T07:49:07;87853.97;;;19.54;55.12
21623;BME280;10973;46.706;12.340;2022-08-03T07:51:35;87856.06;;;19.63;55.05
21623;BME280;10973;46.706;12.340;2022-08-03T07:54:02;87849.44;;;19.71;55.13
21623;BME280;10973;46.706;12.340;2022-08-03T07:56:30;87857.31;;;19.78;55.15
21623;BME280;10973;46.706;12.340;2022-08-03T07:58:58;87852.94;;;19.87;55.33
21623;BME280;10973;46.706;12.340;2022-08-03T08:01:25;87845.59;;;19.91;54.57
21623;BME280;10973;46.706;12.340;2022-08-03T08:03:53;87836.56;;;20.02;53.81
21623;BME280;10973;46.706;12.340;2022-08-03T08:06:21;87848.22;;;20.11;53.81
21623;BME280;10973;46.706;12.340;2022-08-03T08:08:48;87840.78;;;20.19;53.41
21623;BME280;10973;46.706;12.340;2022-08-03T08:11:15;87836.81;;;20.27;53.26
21623;BME280;10973;46.706;12.340;2022-08-03T08:13:43;87838.19;;;20.35;52.61
21623;BME280;10973;46.706;12.340;2022-08-03T08:16:10;87841.03;;;20.44;52.43
21623;BME280;10973;46.706;12.340;2022-08-03T08:18:37;87833.56;;;20.51;52.22
21623;BME280;10973;46.706;12.340;2022-08-03T08:21:06;87843.72;;;20.60;52.21
21623;BME280;10973;46.706;12.340;2022-08-03T08:23:34;87846.56;;;20.69;52.10
21623;BME280;10973;46.706;12.340;2022-08-03T08:26:10;87832.25;;;20.76;51.55
21623;BME280;10973;46.706;12.340;2022-08-03T08:28:38;87839.69;;;20.84;51.35
21623;BME280;10973;46.706;12.340;2022-08-03T08:31:05;87841.44;;;20.91;51.65
21623;BME280;10973;46.706;12.340;2022-08-03T08:33:33;87839.38;;;20.98;50.86
21623;BME280;10973;46.706;12.340;2022-08-03T08:36:20;87839.13;;;21.09;50.47
21623;BME280;10973;46.706;12.340;2022-08-03T08:38:47;87840.97;;;21.12;50.38
21623;BME280;10973;46.706;12.340;2022-08-03T08:41:15;87830.81;;;21.19;49.89
21623;BME280;10973;46.706;12.340;2022-08-03T08:43:43;87834.00;;;21.30;49.81
21623;BME280;10973;46.706;12.340;2022-08-03T08:46:12;87836.56;;;21.34;48.67
21623;BME280;10973;46.706;12.340;2022-08-03T08:48:52;87832.09;;;21.44;47.64
21623;BME280;10973;46.706;12.340;2022-08-03T08:51:21;87836.09;;;21.52;48.14
21623;BME280;10973;46.706;12.340;2022-08-03T08:54:20;87826.78;;;21.56;47.84
21623;BME280;10973;46.706;12.340;2022-08-03T08:56:50;87822.75;;;21.64;47.52
21623;BME280;10973;46.706;12.340;2022-08-03T08:59:18;87814.81;;;21.73;46.99
21623;BME280;10973;46.706;12.340;2022-08-03T09:01:47;87826.09;;;21.81;47.07
21623;BME280;10973;46.706;12.340;2022-08-03T09:04:14;87815.19;;;21.88;46.89
21623;BME280;10973;46.706;12.340;2022-08-03T09:06:43;87815.75;;;21.95;46.25
21623;BME280;10973;46.706;12.340;2022-08-03T09:09:30;87817.16;;;22.00;45.20
21623;BME280;10973;46.706;12.340;2022-08-03T09:12:19;87811.59;;;22.07;44.45
21623;BME280;10973;46.706;12.340;2022-08-03T09:15:26;87817.16;;;22.13;44.55
21623;BME280;10973;46.706;12.340;2022-08-03T09:17:56;87809.34;;;22.18;43.93
21623;BME280;10973;46.706;12.340;2022-08-03T09:20:26;87816.44;;;22.25;42.88
21623;BME280;10973;46.706;12.340;2022-08-03T09:23:07;87806.78;;;22.27;43.66
21623;BME280;10973;46.706;12.340;2022-08-03T09:25:57;87807.09;;;22.29;43.09
21623;BME280;10973;46.706;12.340;2022-08-03T09:28:34;87800.88;;;22.32;43.20
21623;BME280;10973;46.706;12.340;2022-08-03T09:31:36;87799.47;;;22.40;44.24
21623;BME280;10973;46.706;12.340;2022-08-03T09:34:12;87799.91;;;22.51;44.08
21623;BME280;10973;46.706;12.340;2022-08-03T09:36:42;87796.69;;;22.56;43.37
21623;BME280;10973;46.706;12.340;2022-08-03T09:39:14;87796.50;;;22.63;42.97
21623;BME280;10973;46.706;12.340;2022-08-03T09:41:45;87798.97;;;22.70;43.32
21623;BME280;10973;46.706;12.340;2022-08-03T09:44:13;87788.44;;;22.76;43.59
21623;BME280;10973;46.706;12.340;2022-08-03T09:46:54;87789.25;;;22.86;42.99
21623;BME280;10973;46.706;12.340;2022-08-03T09:49:23;87789.91;;;22.90;42.48
21623;BME280;10973;46.706;12.340;2022-08-03T09:51:52;87781.94;;;22.99;42.83
21623;BME280;10973;46.706;12.340;2022-08-03T09:54:41;87789.19;;;23.11;43.02
21623;BME280;10973;46.706;12.340;2022-08-03T09:57:24;87793.59;;;23.17;41.78
21623;BME280;10973;46.706;12.340;2022-08-03T09:59:53;87789.50;;;23.25;41.20
21623;BME280;10973;46.706;12.340;2022-08-03T10:02:35;87786.91;;;23.34;41.46
21623;BME280;10973;46.706;12.340;2022-08-03T10:07:51;87779.22;;;23.46;41.27
21623;BME280;10973;46.706;12.340;2022-08-03T10:10:19;87776.47;;;23.58;39.63
21623;BME280;10973;46.706;12.340;2022-08-03T10:12:59;87767.53;;;23.61;38.63
21623;BME280;10973;46.706;12.340;2022-08-03T10:15:27;87775.03;;;23.66;38.96
21623;BME280;10973;46.706;12.340;2022-08-03T10:18:14;87773.59;;;23.74;38.08
21623;BME280;10973;46.706;12.340;2022-08-03T10:21:07;87762.16;;;23.83;37.45
21623;BME280;10973;46.706;12.340;2022-08-03T10:23:38;87762.63;;;23.90;38.24
21623;BME280;10973;46.706;12.340;2022-08-03T10:26:09;87764.50;;;24.02;38.40
21623;BME280;10973;46.706;12.340;2022-08-03T10:28:49;87762.66;;;24.12;39.35
21623;BME280;10973;46.706;12.340;2022-08-03T10:31:22;87755.66;;;24.24;38.60
21623;BME280;10973;46.706;12.340;2022-08-03T10:33:53;87747.47;;;24.36;37.59
21623;BME280;10973;46.706;12.340;2022-08-03T10:36:26;87752.03;;;24.48;38.08
21623;BME280;10973;46.706;12.340;2022-08-03T10:38:56;87746.97;;;24.59;37.35
21623;BME280;10973;46.706;12.340;2022-08-03T10:41:31;87748.78;;;24.71;37.42
21623;BME280;10973;46.706;12.340;2022-08-03T10:44:12;87748.25;;;24.86;37.26
21623;BME280;10973;46.706;12.340;2022-08-03T10:46:42;87747.09;;;24.96;35.54
21623;BME280;10973;46.706;12.340;2022-08-03T10:49:16;87749.66;;;25.08;35.97
21623;BME280;10973;46.706;12.340;2022-08-03T10:52:03;87735.28;;;25.20;35.45
21623;BME280;10973;46.706;12.340;2022-08-03T10:54:51;87743.41;;;25.38;36.82
21623;BME280;10973;46.706;12.340;2022-08-03T11:00:10;87726.75;;;25.67;34.02
21623;BME280;10973;46.706;12.340;2022-08-03T11:03:16;87729.91;;;25.84;31.16
21623;BME280;10973;46.706;12.340;2022-08-03T11:05:48;87730.34;;;25.91;30.25
21623;BME280;10973;46.706;12.340;2022-08-03T11:08:29;87728.66;;;26.03;31.94
21623;BME280;10973;46.706;12.340;2022-08-03T11:14:09;87723.81;;;26.34;30.21
21623;BME280;10973;46.706;12.340;2022-08-03T11:16:47;87720.00;;;26.50;30.46
21623;BME280;10973;46.706;12.340;2022-08-03T11:19:22;87721.56;;;26.65;30.50
21623;BME280;10973;46.706;12.340;2022-08-03T11:22:04;87717.34;;;26.73;29.33
21623;BME280;10973;46.706;12.340;2022-08-03T11:30:10;87714.69;;;27.21;29.29
21623;BME280;10973;46.706;12.340;2022-08-03T11:32:57;87714.25;;;27.46;30.77
21623;BME280;10973;46.706;12.340;2022-08-03T11:35:28;87711.28;;;27.58;29.58
21623;BME280;10973;46.706;12.340;2022-08-03T11:40:39;87717.38;;;27.83;28.65
21623;BME280;10973;46.706;12.340;2022-08-03T11:46:03;87699.19;;;27.98;27.65
21623;BME280;10973;46.706;12.340;2022-08-03T11:48:39;87695.19;;;28.08;27.62
21623;BME280;10973;46.706;12.340;2022-08-03T11:51:27;87699.13;;;28.21;27.67
21623;BME280;10973;46.706;12.340;2022-08-03T11:54:05;87692.56;;;28.43;26.16
21623;BME280;10973;46.706;12.340;2022-08-03T11:56:47;87692.84;;;28.59;25.82
21623;BME280;10973;46.706;12.340;2022-08-03T11:59:15;87689.06;;;28.71;25.95
21623;BME280;10973;46.706;12.340;2022-08-03T12:01:49;87694.88;;;28.79;26.41
21623;BME280;10973;46.706;12.340;2022-08-03T12:04:16;87690.44;;;28.96;25.97
21623;BME280;10973;46.706;12.340;2022-08-03T12:07:00;87683.25;;;29.13;26.38
21623;BME280;10973;46.706;12.340;2022-08-03T12:09:27;87679.28;;;29.29;25.40
21623;BME280;10973;46.706;12.340;2022-08-03T12:11:54;87690.50;;;29.36;26.15
21623;BME280;10973;46.706;12.340;2022-08-03T12:14:27;87687.25;;;29.32;26.24
21623;BME280;10973;46.706;12.340;2022-08-03T12:17:15;87679.56;;;29.31;26.04
21623;BME280;10973;46.706;12.340;2022-08-03T12:19:43;87678.13;;;29.35;26.02
21623;BME280;10973;46.706;12.340;2022-08-03T12:22:14;87683.41;;;29.44;24.99
21623;BME280;10973;46.706;12.340;2022-08-03T12:24:43;87673.09;;;29.28;24.93
21623;BME280;10973;46.706;12.340;2022-08-03T12:27:23;87678.09;;;29.15;23.52
21623;BME280;10973;46.706;12.340;2022-08-03T12:29:56;87680.56;;;29.33;24.83
21623;BME280;10973;46.706;12.340;2022-08-03T12:32:30;87673.53;;;29.41;23.95
21623;BME280;10973;46.706;12.340;2022-08-03T12:34:58;87666.31;;;29.38;25.30
21623;BME280;10973;46.706;12.340;2022-08-03T12:37:26;87666.81;;;29.37;26.35
21623;BME280;10973;46.706;12.340;2022-08-03T12:39:57;87672.16;;;29.51;24.59
21623;BME280;10973;46.706;12.340;2022-08-03T12:42:34;87673.38;;;29.71;25.57
21623;BME280;10973;46.706;12.340;2022-08-03T12:45:28;87665.69;;;29.89;25.77
21623;BME280;10973;46.706;12.340;2022-08-03T12:48:00;87662.66;;;30.07;25.95
21623;BME280;10973;46.706;12.340;2022-08-03T12:50:35;87662.25;;;30.20;24.78
21623;BME280;10973;46.706;12.340;2022-08-03T12:53:06;87660.97;;;30.15;23.08
21623;BME280;10973;46.706;12.340;2022-08-03T12:55:38;87670.69;;;30.22;24.06
21623;BME280;10973;46.706;12.340;2022-08-03T12:58:34;87666.88;;;30.34;23.12
21623;BME280;10973;46.706;12.340;2022-08-03T13:01:04;87657.84;;;30.48;23.60
21623;BME280;10973;46.706;12.340;2022-08-03T13:03:47;87657.22;;;30.64;22.71
21623;BME280;10973;46.706;12.340;2022-08-03T13:06:24;87650.59;;;30.76;23.12
21623;BME280;10973;46.706;12.340;2022-08-03T13:09:06;87649.94;;;30.87;22.64
21623;BME280;10973;46.706;12.340;2022-08-03T13:11:34;87650.50;;;30.96;22.21
21623;BME280;10973;46.706;12.340;2022-08-03T13:14:21;87654.53;;;31.07;23.05
21623;BME280;10973;46.706;12.340;2022-08-03T13:16:50;87646.94;;;31.16;22.27
21623;BME280;10973;46.706;12.340;2022-08-03T13:19:18;87654.91;;;31.25;22.58
21623;BME280;10973;46.706;12.340;2022-08-03T13:21:45;87653.47;;;31.41;21.80
21623;BME280;10973;46.706;12.340;2022-08-03T13:24:31;87655.53;;;31.46;21.40
21623;BME280;10973;46.706;12.340;2022-08-03T13:26:59;87646.13;;;31.52;20.66
21623;BME280;10973;46.706;12.340;2022-08-03T13:29:47;87650.78;;;31.46;20.68
21623;BME280;10973;46.706;12.340;2022-08-03T13:32:14;87642.63;;;31.46;22.02
21623;BME280;10973;46.706;12.340;2022-08-03T13:34:41;87643.41;;;31.52;20.52
21623;BME280;10973;46.706;12.340;2022-08-03T13:37:09;87642.19;;;31.59;22.62
21623;BME280;10973;46.706;12.340;2022-08-03T13:39:40;87640.50;;;31.73;22.30
21623;BME280;10973;46.706;12.340;2022-08-03T13:42:27;87633.09;;;31.84;21.58
21623;BME280;10973;46.706;12.340;2022-08-03T13:44:55;87634.59;;;31.91;20.84
21623;BME280;10973;46.706;12.340;2022-08-03T13:47:22;87635.84;;;31.95;21.81
21623;BME280;10973;46.706;12.340;2022-08-03T13:49:49;87629.44;;;32.04;21.68
21623;BME280;10973;46.706;12.340;2022-08-03T13:52:31;87634.66;;;32.13;20.53
21623;BME280;10973;46.706;12.340;2022-08-03T13:55:04;87627.97;;;32.30;21.97